Time;durP1;ratioP1;P1;durP2;ratioP2;P2;SDS_P1;SDS_P2;PMS_P1;PMS_P2;Temp;Humidity;BMP_temperature;BMP_pressure;BME280_temperature;BME280_humidity;BME280_pressure;Samples;Min_cycle;Max_cycle;Signal;HPM_P1;HPM_P2
2022/08/14 00:01:23;;;;;;;8.38;5.97;;;22.90;83.80;;;;;;5038655;28;20078;-65
2022/08/14 00:03:48;;;;;;;7.93;6.55;;;22.90;84.10;;;;;;5042918;28;20352;-64
2022/08/14 00:06:14;;;;;;;6.90;5.90;;;22.90;84.10;;;;;;5035806;28;20053;-65
2022/08/14 00:08:40;;;;;;;8.82;6.13;;;22.90;84.30;;;;;;5041890;28;20201;-64
2022/08/14 00:11:05;;;;;;;7.65;6.22;;;22.80;84.50;;;;;;5035535;28;20121;-64
2022/08/14 00:13:31;;;;;;;9.32;6.65;;;22.80;84.80;;;;;;5035208;28;20037;-64
2022/08/14 00:15:58;;;;;;;8.57;6.57;;;22.80;85.00;;;;;;5031205;28;20077;-64
2022/08/14 00:18:26;;;;;;;10.23;7.10;;;22.80;85.20;;;;;;5040893;28;20033;-64
2022/08/14 00:20:52;;;;;;;9.52;7.07;;;22.80;85.20;;;;;;5038366;28;20076;-65
2022/08/14 00:23:18;;;;;;;9.23;6.70;;;22.70;85.40;;;;;;5037910;28;20106;-64
2022/08/14 00:25:51;;;;;;;8.15;7.32;;;22.60;85.60;;;;;;5034223;28;20749;-65
2022/08/14 00:28:18;;;;;;;9.43;6.80;;;22.60;85.90;;;;;;5033023;28;20072;-65
2022/08/14 00:30:44;;;;;;;8.30;6.55;;;22.60;86.10;;;;;;5042028;28;20076;-65
2022/08/14 00:33:10;;;;;;;9.55;7.28;;;22.60;86.20;;;;;;5048238;28;20369;-65
2022/08/14 00:35:36;;;;;;;8.35;6.47;;;22.60;86.40;;;;;;5042300;28;20054;-65
2022/08/14 00:38:01;;;;;;;9.38;7.07;;;22.50;86.60;;;;;;5039224;28;20037;-64
2022/08/14 00:40:27;;;;;;;11.38;8.20;;;22.50;86.80;;;;;;5038382;28;20147;-64
2022/08/14 00:42:53;;;;;;;8.30;6.82;;;22.50;87.00;;;;;;5033523;28;20121;-64
2022/08/14 00:45:19;;;;;;;8.63;7.15;;;22.40;87.20;;;;;;5042121;28;20095;-64
2022/08/14 00:47:47;;;;;;;9.07;7.55;;;22.40;87.40;;;;;;5034927;28;20076;-65
2022/08/14 00:50:18;;;;;;;9.18;7.28;;;22.40;87.60;;;;;;5032773;28;20046;-65
2022/08/14 00:52:45;;;;;;;10.30;7.93;;;22.40;87.90;;;;;;5027490;28;20447;-65
2022/08/14 00:55:11;;;;;;;10.00;7.05;;;22.40;88.20;;;;;;5034231;28;20049;-64
2022/08/14 00:57:38;;;;;;;8.90;7.32;;;22.30;88.40;;;;;;5035772;28;20048;-64
2022/08/14 01:00:14;;;;;;;9.15;6.85;;;22.30;88.60;;;;;;5040300;28;20100;-64
2022/08/14 01:02:42;;;;;;;7.95;7.00;;;22.30;88.60;;;;;;5033794;28;20046;-65
2022/08/14 01:05:22;;;;;;;8.18;6.50;;;22.20;88.80;;;;;;5032515;28;20528;-64
2022/08/14 01:07:52;;;;;;;8.90;6.53;;;22.20;89.10;;;;;;5030495;28;20400;-65
2022/08/14 01:10:19;;;;;;;8.77;6.72;;;22.10;89.30;;;;;;5038878;28;20049;-65
2022/08/14 01:12:47;;;;;;;8.60;6.78;;;22.10;89.60;;;;;;5042072;28;20091;-65
2022/08/14 01:15:15;;;;;;;8.55;7.13;;;22.10;89.70;;;;;;5046044;28;20059;-65
2022/08/14 01:23:13;;;;;;;8.15;6.63;;;22.00;90.00;;;;;;5032108;28;20054;-65
2022/08/14 01:25:38;;;;;;;10.38;7.18;;;22.00;90.10;;;;;;5041127;28;20037;-65
2022/08/14 01:28:05;;;;;;;8.02;7.22;;;22.00;90.20;;;;;;5040743;28;20124;-65
2022/08/14 01:30:32;;;;;;;10.02;6.85;;;22.00;90.40;;;;;;5035371;28;20044;-65
2022/08/14 01:32:58;;;;;;;7.85;7.00;;;22.00;90.50;;;;;;5043791;28;20092;-65
2022/08/14 01:35:27;;;;;;;8.73;6.72;;;22.00;90.50;;;;;;5034643;28;20187;-64
2022/08/14 01:37:53;;;;;;;8.13;7.00;;;22.00;90.60;;;;;;5040895;28;20045;-65
2022/08/14 01:40:22;;;;;;;9.52;6.55;;;21.90;90.70;;;;;;5041998;28;20325;-65
2022/08/14 01:42:48;;;;;;;9.80;6.68;;;21.90;90.80;;;;;;5039189;28;20900;-64
2022/08/14 01:45:14;;;;;;;8.13;6.85;;;21.90;90.90;;;;;;5032437;28;20048;-65
2022/08/14 01:47:39;;;;;;;9.30;6.82;;;21.90;90.90;;;;;;5030333;28;20037;-64
2022/08/14 01:50:07;;;;;;;9.20;6.93;;;21.90;91.00;;;;;;5021459;28;20042;-65
2022/08/14 01:52:35;;;;;;;8.68;7.07;;;21.80;91.10;;;;;;5039792;28;21824;-65
2022/08/14 01:55:04;;;;;;;9.05;7.15;;;21.80;91.20;;;;;;5035220;28;20099;-64
2022/08/14 01:57:32;;;;;;;9.68;7.32;;;21.80;91.30;;;;;;5035581;28;20029;-65
2022/08/14 01:59:57;;;;;;;8.55;7.32;;;21.80;91.40;;;;;;5035833;28;20476;-64
2022/08/14 02:02:23;;;;;;;8.88;6.95;;;21.70;91.50;;;;;;5037611;28;20131;-64
2022/08/14 02:04:49;;;;;;;8.10;6.75;;;21.70;91.50;;;;;;5041373;28;20509;-64
2022/08/14 02:07:14;;;;;;;8.73;7.15;;;21.70;91.60;;;;;;5033241;28;20053;-65
2022/08/14 02:09:41;;;;;;;7.60;6.80;;;21.70;91.70;;;;;;5039672;28;20051;-64
2022/08/14 02:12:07;;;;;;;9.02;6.70;;;21.70;91.80;;;;;;5037810;28;20103;-64
2022/08/14 02:14:34;;;;;;;10.10;7.30;;;21.70;91.80;;;;;;5038566;28;20037;-64
2022/08/14 02:17:00;;;;;;;8.68;7.03;;;21.60;91.90;;;;;;5039766;28;20037;-65
2022/08/14 02:19:30;;;;;;;9.02;7.32;;;21.60;92.20;;;;;;5037564;28;20861;-65
2022/08/14 02:21:58;;;;;;;8.65;7.28;;;21.60;92.00;;;;;;5034972;28;20169;-64
2022/08/14 02:24:28;;;;;;;9.10;6.88;;;21.60;92.10;;;;;;5046143;28;20041;-64
2022/08/14 02:26:56;;;;;;;8.27;7.15;;;21.50;92.30;;;;;;5038945;28;20220;-65
2022/08/14 02:29:26;;;;;;;8.30;7.43;;;21.50;92.40;;;;;;5020665;28;20172;-64
2022/08/14 02:31:55;;;;;;;8.20;7.13;;;21.40;92.50;;;;;;5044728;28;20040;-64
2022/08/14 02:34:27;;;;;;;9.75;7.57;;;21.40;92.60;;;;;;5040487;28;20057;-65
2022/08/14 02:36:57;;;;;;;7.93;7.07;;;21.40;92.70;;;;;;5035313;28;20125;-64
2022/08/14 02:39:24;;;;;;;10.80;7.30;;;21.30;92.80;;;;;;5044393;28;20044;-64
2022/08/14 02:41:51;;;;;;;8.88;7.60;;;21.40;92.80;;;;;;5037149;28;20049;-64
2022/08/14 02:44:19;;;;;;;8.50;7.40;;;21.30;93.00;;;;;;5033918;28;21703;-64
2022/08/14 02:46:46;;;;;;;8.35;7.55;;;21.30;93.10;;;;;;5028190;28;20041;-64
2022/08/14 02:49:12;;;;;;;8.65;7.03;;;21.30;93.20;;;;;;5037700;28;20695;-64
2022/08/14 02:51:38;;;;;;;8.68;7.40;;;21.20;93.30;;;;;;5038008;28;20042;-65
2022/08/14 02:54:06;;;;;;;8.88;7.97;;;21.20;93.40;;;;;;5040199;28;20051;-64
2022/08/14 02:56:33;;;;;;;8.13;7.25;;;21.20;93.50;;;;;;5042021;28;20365;-65
2022/08/14 02:59:00;;;;;;;9.95;7.78;;;21.20;93.60;;;;;;5039886;28;20041;-65
2022/08/14 03:01:27;;;;;;;9.82;7.88;;;21.20;93.70;;;;;;5038135;28;20053;-65
2022/08/14 03:03:56;;;;;;;8.90;7.53;;;21.10;93.90;;;;;;5042075;28;20042;-65
2022/08/14 03:06:23;;;;;;;8.05;7.15;;;21.10;94.00;;;;;;5036365;28;20049;-66
2022/08/14 03:08:50;;;;;;;8.30;7.20;;;21.10;94.40;;;;;;5040591;28;20397;-64
2022/08/14 03:11:15;;;;;;;9.13;7.60;;;21.10;94.20;;;;;;5039798;28;20572;-64
2022/08/14 03:13:43;;;;;;;9.18;7.43;;;21.10;94.30;;;;;;5049231;28;20040;-64
2022/08/14 03:16:13;;;;;;;8.27;7.43;;;21.10;94.40;;;;;;5041507;28;20042;-65
2022/08/14 03:18:44;;;;;;;8.63;7.72;;;21.10;94.60;;;;;;5040246;28;20851;-64
2022/08/14 03:21:12;;;;;;;7.65;6.78;;;21.00;94.60;;;;;;5033758;28;21065;-65
2022/08/14 03:23:47;;;;;;;8.90;7.60;;;21.10;94.80;;;;;;5045226;28;20041;-64
2022/08/14 03:26:16;;;;;;;11.43;7.35;;;21.00;94.80;;;;;;5035056;28;20072;-64
2022/08/14 03:28:44;;;;;;;8.45;6.68;;;21.00;94.90;;;;;;5043277;28;20046;-65
2022/08/14 03:31:10;;;;;;;10.02;7.47;;;21.00;95.10;;;;;;5035569;28;20085;-64
2022/08/14 03:33:38;;;;;;;9.52;7.18;;;21.00;95.20;;;;;;5041406;28;20247;-64
2022/08/14 03:36:11;;;;;;;8.85;7.72;;;21.00;95.30;;;;;;5036618;28;20479;-64
2022/08/14 03:38:49;;;;;;;8.45;7.50;;;20.90;95.40;;;;;;5041940;28;20040;-65
2022/08/14 03:41:25;;;;;;;11.55;7.45;;;20.90;95.50;;;;;;5037938;28;20048;-64
2022/08/14 03:43:57;;;;;;;8.95;7.40;;;20.90;95.60;;;;;;5038944;28;20409;-64
2022/08/14 03:46:33;;;;;;;10.13;7.55;;;20.90;95.70;;;;;;5035219;28;20041;-64
2022/08/14 03:49:03;;;;;;;9.40;7.72;;;20.80;95.80;;;;;;5035001;28;20302;-63
2022/08/14 03:51:28;;;;;;;8.57;7.35;;;20.80;95.90;;;;;;5040171;28;20102;-64
2022/08/14 03:53:56;;;;;;;9.10;7.60;;;20.80;96.00;;;;;;5038846;28;20041;-64
2022/08/14 03:56:24;;;;;;;9.48;7.82;;;20.80;96.20;;;;;;5042999;28;20049;-65
2022/08/14 03:58:51;;;;;;;9.25;7.90;;;20.70;96.20;;;;;;5041765;28;20391;-65
2022/08/14 04:01:20;;;;;;;8.52;7.57;;;20.70;96.40;;;;;;5039347;28;20136;-64
2022/08/14 04:03:47;;;;;;;10.70;8.35;;;20.80;96.40;;;;;;5037252;28;20114;-65
2022/08/14 04:06:15;;;;;;;9.15;8.10;;;20.70;96.50;;;;;;5040116;28;20041;-66
2022/08/14 04:08:41;;;;;;;10.00;8.07;;;20.70;96.60;;;;;;5041109;28;20041;-65
2022/08/14 04:11:08;;;;;;;9.82;8.00;;;20.70;96.80;;;;;;5040876;28;20073;-65
2022/08/14 04:13:37;;;;;;;9.25;8.35;;;20.60;96.90;;;;;;5038638;28;20061;-65
2022/08/14 04:16:06;;;;;;;10.10;9.02;;;20.60;97.10;;;;;;5035519;28;20063;-65
2022/08/14 04:18:32;;;;;;;11.27;8.77;;;20.60;97.10;;;;;;5046294;28;20553;-65
2022/08/14 04:20:58;;;;;;;10.45;8.88;;;20.60;97.20;;;;;;5028912;28;20067;-65
2022/08/14 04:23:24;;;;;;;9.65;8.52;;;20.60;97.30;;;;;;5032539;28;20041;-65
2022/08/14 04:25:53;;;;;;;11.35;9.15;;;20.50;97.40;;;;;;5031018;28;20072;-65
2022/08/14 04:28:20;;;;;;;10.82;9.73;;;20.50;97.60;;;;;;5019242;28;20157;-65
2022/08/14 04:30:46;;;;;;;10.02;8.70;;;20.50;97.60;;;;;;5041467;28;20136;-65
2022/08/14 04:33:13;;;;;;;10.70;9.60;;;20.60;97.70;;;;;;5040757;28;20041;-65
2022/08/14 04:35:39;;;;;;;12.10;9.30;;;20.50;97.80;;;;;;5038555;28;20049;-64
2022/08/14 04:43:41;;;;;;;12.65;8.95;;;20.50;98.10;;;;;;5029770;28;20049;-64
2022/08/14 04:46:12;;;;;;;11.02;9.40;;;20.50;98.20;;;;;;5029564;28;20137;-64
2022/08/14 04:48:38;;;;;;;10.10;8.80;;;20.50;98.30;;;;;;5030897;28;20041;-64
2022/08/14 04:51:07;;;;;;;10.82;9.40;;;20.50;98.30;;;;;;5028765;28;20119;-64
2022/08/14 04:53:33;;;;;;;12.23;9.48;;;20.50;98.30;;;;;;5031209;28;20033;-64
2022/08/14 04:55:59;;;;;;;11.52;9.32;;;20.50;98.40;;;;;;5031036;28;20053;-65
2022/08/14 04:58:30;;;;;;;11.48;9.45;;;20.60;98.40;;;;;;5034357;28;20518;-64
2022/08/14 05:00:57;;;;;;;10.45;9.20;;;20.60;98.40;;;;;;5027598;28;20085;-64
2022/08/14 05:03:25;;;;;;;9.93;8.93;;;20.60;98.50;;;;;;5026089;28;20044;-65
2022/08/14 05:05:53;;;;;;;11.35;9.57;;;20.70;98.50;;;;;;5026146;28;20115;-65
2022/08/14 05:08:19;;;;;;;11.27;9.45;;;20.70;98.50;;;;;;5029338;28;20140;-65
2022/08/14 05:10:50;;;;;;;10.75;9.13;;;20.70;98.50;;;;;;5025836;28;20094;-64
2022/08/14 05:13:18;;;;;;;11.05;9.20;;;20.80;98.60;;;;;;5027688;28;20042;-65
2022/08/14 05:15:45;;;;;;;11.70;9.63;;;20.80;98.60;;;;;;5039222;28;20091;-65
2022/08/14 05:18:18;;;;;;;11.02;8.95;;;20.90;98.60;;;;;;5029545;28;20384;-65
2022/08/14 05:20:49;;;;;;;10.43;8.73;;;21.10;98.60;;;;;;5029289;28;20156;-65
2022/08/14 05:23:17;;;;;;;10.02;8.75;;;21.10;98.50;;;;;;5031084;28;20053;-65
2022/08/14 05:25:44;;;;;;;10.60;9.50;;;21.20;98.50;;;;;;5026108;28;20097;-65
2022/08/14 05:28:18;;;;;;;9.82;8.70;;;21.30;98.40;;;;;;5031930;28;20076;-64
2022/08/14 05:31:07;;;;;;;9.93;8.90;;;21.30;98.40;;;;;;5028733;28;20128;-65
2022/08/14 05:33:34;;;;;;;10.30;8.27;;;21.40;98.20;;;;;;5037442;28;20065;-66
2022/08/14 05:36:04;;;;;;;10.65;8.88;;;21.50;98.20;;;;;;5031331;28;20414;-66
2022/08/14 05:38:36;;;;;;;8.93;8.02;;;21.50;98.10;;;;;;5033695;28;20049;-66
2022/08/14 05:41:04;;;;;;;10.30;8.50;;;21.60;98.00;;;;;;5049575;28;20056;-66
2022/08/14 05:43:30;;;;;;;10.75;9.63;;;21.60;97.90;;;;;;5033860;28;20070;-65
2022/08/14 05:45:57;;;;;;;10.45;9.25;;;21.70;97.90;;;;;;5030389;28;20060;-65
2022/08/14 05:48:24;;;;;;;10.57;9.20;;;21.70;97.90;;;;;;5030715;28;20051;-65
2022/08/14 05:50:51;;;;;;;10.02;8.82;;;21.70;97.80;;;;;;5028135;28;20042;-65
2022/08/14 05:53:16;;;;;;;9.45;8.50;;;21.80;97.80;;;;;;5025995;28;20044;-66
2022/08/14 05:55:42;;;;;;;10.68;9.02;;;21.90;97.70;;;;;;5025828;28;20053;-66
2022/08/14 05:58:08;;;;;;;10.93;9.02;;;21.90;97.60;;;;;;5026229;28;20047;-65
2022/08/14 06:00:37;;;;;;;11.15;8.75;;;22.00;97.50;;;;;;5025112;28;20045;-65
2022/08/14 06:03:05;;;;;;;11.95;9.50;;;22.10;97.40;;;;;;5027652;28;20037;-65
2022/08/14 06:05:31;;;;;;;13.25;9.35;;;22.10;97.40;;;;;;5028600;28;20045;-65
2022/08/14 06:08:00;;;;;;;10.43;8.90;;;22.20;97.40;;;;;;5030587;28;20430;-65
2022/08/14 06:10:27;;;;;;;11.40;8.93;;;22.30;97.30;;;;;;5026362;28;20053;-65
2022/08/14 06:12:53;;;;;;;10.77;8.50;;;22.30;97.20;;;;;;5039669;28;20053;-65
2022/08/14 06:15:19;;;;;;;10.85;8.95;;;22.50;97.20;;;;;;5036622;28;20044;-65
2022/08/14 06:17:54;;;;;;;11.38;8.55;;;22.50;97.10;;;;;;5039154;28;20167;-66
2022/08/14 06:20:20;;;;;;;9.80;8.40;;;22.60;96.90;;;;;;5024065;28;20049;-66
2022/08/14 06:22:46;;;;;;;11.13;8.90;;;22.60;96.90;;;;;;5029988;28;20155;-68
2022/08/14 06:25:13;;;;;;;10.25;8.27;;;22.70;96.90;;;;;;5032716;28;20101;-67
2022/08/14 06:27:43;;;;;;;10.38;8.50;;;22.80;96.80;;;;;;5026579;28;20049;-68
2022/08/14 06:30:12;;;;;;;8.75;7.80;;;22.90;96.70;;;;;;5031247;28;20037;-66
2022/08/14 06:32:38;;;;;;;12.60;8.60;;;23.00;96.50;;;;;;5030293;28;20384;-68
2022/08/14 06:35:06;;;;;;;10.30;8.00;;;23.10;96.50;;;;;;5026559;28;20038;-69
2022/08/14 06:37:45;;;;;;;9.15;7.80;;;23.20;96.40;;;;;;5040329;28;20120;-70
2022/08/14 06:40:13;;;;;;;11.82;7.30;;;23.40;96.20;;;;;;5037481;28;20476;-69
2022/08/14 06:42:40;;;;;;;9.45;7.85;;;23.40;96.10;;;;;;5047307;28;20049;-68
2022/08/14 06:45:07;;;;;;;8.23;7.22;;;23.50;95.90;;;;;;5058730;28;20037;-68
2022/08/14 06:47:35;;;;;;;10.25;8.35;;;23.60;95.90;;;;;;5044049;28;20044;-68
2022/08/14 06:50:06;;;;;;;8.82;7.60;;;23.70;95.80;;;;;;5041694;28;20145;-68
2022/08/14 06:52:32;;;;;;;10.48;7.50;;;23.80;95.80;;;;;;5047316;28;20056;-68
2022/08/14 06:54:58;;;;;;;9.00;7.72;;;23.90;95.60;;;;;;5045413;28;20477;-68
2022/08/14 06:57:24;;;;;;;8.70;7.72;;;23.90;95.50;;;;;;5044194;28;20036;-68
2022/08/14 06:59:50;;;;;;;9.52;7.82;;;24.00;95.40;;;;;;5054237;28;20045;-68
2022/08/14 07:07:46;;;;;;;8.80;7.20;;;24.20;95.20;;;;;;5046242;28;20065;-67
2022/08/14 07:10:11;;;;;;;9.05;6.47;;;24.30;95.10;;;;;;5037698;28;20060;-67
2022/08/14 07:12:37;;;;;;;9.63;6.63;;;24.40;94.90;;;;;;5037405;28;20038;-70
2022/08/14 07:15:04;;;;;;;8.73;7.82;;;24.50;94.80;;;;;;5039948;28;20691;-71
2022/08/14 07:17:30;;;;;;;8.75;6.75;;;24.60;94.60;;;;;;5052119;28;20045;-69
2022/08/14 07:19:56;;;;;;;8.77;7.50;;;24.70;94.30;;;;;;5050449;28;20307;-67
2022/08/14 07:22:21;;;;;;;10.07;7.68;;;24.80;94.40;;;;;;5049796;28;20040;-68
2022/08/14 07:24:47;;;;;;;8.70;7.78;;;24.80;94.50;;;;;;5046102;28;20349;-65
2022/08/14 07:27:12;;;;;;;9.75;7.82;;;24.90;94.40;;;;;;5050280;28;20218;-66
2022/08/14 07:29:38;;;;;;;10.30;7.40;;;25.00;94.10;;;;;;5039459;28;20072;-65
2022/08/14 07:32:04;;;;;;;11.45;7.47;;;25.10;94.00;;;;;;5051229;28;20439;-67
2022/08/14 07:34:30;;;;;;;9.07;7.10;;;25.10;93.90;;;;;;5042984;28;20041;-66
2022/08/14 07:36:55;;;;;;;8.50;7.18;;;25.30;94.10;;;;;;5050761;28;20059;-66
2022/08/14 07:39:21;;;;;;;9.32;7.65;;;25.30;94.00;;;;;;5043872;28;20033;-65
2022/08/14 07:41:47;;;;;;;12.27;7.88;;;25.40;93.80;;;;;;5048754;28;20037;-67
2022/08/14 07:44:12;;;;;;;9.45;7.15;;;25.50;93.50;;;;;;5045937;28;20045;-66
2022/08/14 07:46:39;;;;;;;9.27;7.43;;;25.60;93.50;;;;;;5047336;28;20080;-65
2022/08/14 07:49:06;;;;;;;9.48;8.25;;;25.70;93.50;;;;;;5045828;28;20037;-66
2022/08/14 07:51:32;;;;;;;9.00;7.60;;;25.70;93.10;;;;;;5049046;28;20428;-66
2022/08/14 07:53:58;;;;;;;9.70;7.88;;;25.70;92.90;;;;;;5035153;28;20049;-65
2022/08/14 07:56:24;;;;;;;8.20;7.30;;;25.80;92.70;;;;;;5048347;28;20112;-66
2022/08/14 07:58:50;;;;;;;8.88;7.10;;;25.90;92.80;;;;;;5048593;28;20484;-65
2022/08/14 08:01:17;;;;;;;9.75;7.18;;;25.90;92.80;;;;;;5043480;28;20064;-65
2022/08/14 08:03:46;;;;;;;9.77;7.43;;;26.10;92.90;;;;;;5049291;28;20041;-65
2022/08/14 08:06:15;;;;;;;8.13;6.75;;;26.10;92.60;;;;;;5048802;28;20045;-66
2022/08/14 08:08:42;;;;;;;8.93;7.88;;;26.20;92.50;;;;;;5048561;28;20041;-64
2022/08/14 08:11:10;;;;;;;9.60;6.70;;;26.20;92.20;;;;;;5044872;28;20053;-66
2022/08/14 08:13:40;;;;;;;7.55;6.75;;;26.20;92.10;;;;;;5039626;28;20052;-65
2022/08/14 08:16:07;;;;;;;9.13;7.25;;;26.30;91.90;;;;;;5050049;28;20147;-65
2022/08/14 08:18:33;;;;;;;8.00;7.20;;;26.40;91.70;;;;;;5051263;28;20499;-64
2022/08/14 08:20:59;;;;;;;8.88;6.90;;;26.40;91.60;;;;;;5050438;28;20041;-65
2022/08/14 08:23:27;;;;;;;10.63;6.90;;;26.50;91.60;;;;;;5047533;28;20060;-65
2022/08/14 08:25:54;;;;;;;8.57;6.88;;;26.50;91.50;;;;;;5048713;28;20078;-64
2022/08/14 08:28:26;;;;;;;10.60;6.45;;;26.60;91.60;;;;;;5039145;28;20389;-65
2022/08/14 08:30:56;;;;;;;8.45;6.13;;;26.80;92.10;;;;;;5045634;28;20049;-65
2022/08/14 08:33:24;;;;;;;9.13;6.63;;;26.80;91.30;;;;;;5046080;28;20080;-65
2022/08/14 08:35:50;;;;;;;9.10;7.28;;;26.90;91.00;;;;;;5040408;28;20044;-66
2022/08/14 08:38:22;;;;;;;9.00;7.05;;;27.00;90.80;;;;;;5050142;28;20377;-67
2022/08/14 08:40:51;;;;;;;7.32;6.40;;;27.10;90.80;;;;;;5045940;28;20047;-64
2022/08/14 08:43:25;;;;;;;7.90;6.50;;;27.10;90.60;;;;;;5041914;28;20115;-65
2022/08/14 08:46:04;;;;;;;;;;;27.20;91.00;;;;;;5047645;28;20139;-65
2022/08/14 08:48:43;;;;;;;7.63;6.60;;;27.20;90.40;;;;;;5045159;28;19928;-65
2022/08/14 08:51:20;;;;;;;7.97;6.10;;;27.30;90.00;;;;;;5047847;28;20064;-65
2022/08/14 08:53:58;;;;;;;8.80;6.43;;;27.40;90.00;;;;;;5040138;28;20044;-66
2022/08/14 08:56:35;;;;;;;6.80;5.88;;;27.40;88.90;;;;;;5051149;28;20056;-65
2022/08/14 08:59:01;;;;;;;7.05;6.28;;;27.50;89.50;;;;;;5047758;28;20090;-65
2022/08/14 09:01:30;;;;;;;6.88;5.45;;;27.50;88.60;;;;;;5045232;28;20688;-65
2022/08/14 09:04:03;;;;;;;6.82;5.60;;;27.60;88.10;;;;;;5043991;28;20278;-65
2022/08/14 09:06:28;;;;;;;6.93;5.13;;;27.70;87.20;;;;;;5042220;28;20079;-67
2022/08/14 09:08:54;;;;;;;7.38;5.88;;;27.70;86.80;;;;;;5046121;28;20049;-66
2022/08/14 09:11:22;;;;;;;6.32;5.47;;;27.80;86.60;;;;;;5034169;28;20055;-67
2022/08/14 09:13:52;;;;;;;8.45;5.57;;;27.90;86.50;;;;;;5038574;28;20531;-67
2022/08/14 09:16:23;;;;;;;7.35;5.45;;;27.90;86.50;;;;;;5039742;28;20045;-67
2022/08/14 09:18:49;;;;;;;7.45;5.45;;;28.00;86.20;;;;;;5041001;28;20483;-67
2022/08/14 09:21:14;;;;;;;7.93;5.53;;;28.10;85.80;;;;;;5038337;28;20052;-67
2022/08/14 09:23:40;;;;;;;7.03;5.10;;;28.10;85.20;;;;;;5045282;28;20037;-66
2022/08/14 09:26:06;;;;;;;7.95;5.53;;;28.10;84.20;;;;;;5040240;28;20084;-66
2022/08/14 09:28:31;;;;;;;5.43;4.53;;;28.10;83.40;;;;;;5035526;28;20568;-68
2022/08/14 09:30:58;;;;;;;5.95;5.10;;;28.20;82.80;;;;;;5022949;28;20171;-67
2022/08/14 09:33:46;;;;;;;5.97;5.13;;;28.20;82.60;;;;;;5035569;28;20080;-68
2022/08/14 09:36:25;;;;;;;5.97;5.30;;;28.30;83.20;;;;;;5039965;28;20045;-68
2022/08/14 09:39:05;;;;;;;5.80;4.78;;;28.40;82.50;;;;;;5046563;28;20071;-68
2022/08/14 09:42:12;;;;;;;7.32;5.20;;;28.50;83.00;;;;;;5039671;28;20329;-68
2022/08/14 09:45:09;;;;;;;6.72;5.05;;;28.50;81.30;;;;;;5027554;28;20488;-68
2022/08/14 09:47:50;;;;;;;8.65;4.78;;;28.60;81.00;;;;;;5048306;28;20045;-68
2022/08/14 09:50:20;;;;;;;7.45;5.05;;;28.70;81.20;;;;;;5036492;28;20053;-68
2022/08/14 09:52:54;;;;;;;7.68;4.78;;;28.80;81.50;;;;;;5032053;28;20060;-68
2022/08/14 09:55:22;;;;;;;7.05;5.25;;;28.90;81.00;;;;;;5040069;28;20048;-68
2022/08/14 09:57:49;;;;;;;6.38;5.20;;;28.90;80.40;;;;;;5043480;28;20048;-68
2022/08/14 10:00:17;;;;;;;5.95;4.95;;;28.90;80.50;;;;;;5033880;28;20552;-68
2022/08/14 10:02:53;;;;;;;7.05;4.85;;;29.00;80.60;;;;;;5047765;28;20041;-69
2022/08/14 10:05:33;;;;;;;6.80;5.20;;;29.00;80.20;;;;;;5044886;28;20503;-68
2022/08/14 10:08:02;;;;;;;6.03;4.65;;;29.00;79.60;;;;;;5049196;28;20088;-68
2022/08/14 10:10:28;;;;;;;6.18;5.18;;;29.10;79.50;;;;;;5049666;28;20125;-68
2022/08/14 10:12:55;;;;;;;7.03;5.15;;;29.10;79.80;;;;;;5051746;28;20151;-68
2022/08/14 10:15:24;;;;;;;6.93;5.40;;;29.20;79.10;;;;;;5048657;28;20047;-68
2022/08/14 10:18:02;;;;;;;7.15;5.28;;;29.30;78.90;;;;;;5045098;28;20680;-68
2022/08/14 10:20:33;;;;;;;6.88;5.10;;;29.30;78.50;;;;;;5048501;28;20044;-68
2022/08/14 10:23:15;;;;;;;6.32;5.18;;;29.30;78.10;;;;;;5047856;28;20048;-67
2022/08/14 10:26:05;;;;;;;7.82;5.65;;;29.30;78.10;;;;;;5046353;28;20072;-68
2022/08/14 10:28:42;;;;;;;7.78;5.43;;;29.40;77.40;;;;;;5047918;28;20045;-68
2022/08/14 10:31:28;;;;;;;8.30;5.60;;;29.40;76.50;;;;;;5041947;28;20124;-70
2022/08/14 10:34:04;;;;;;;6.10;5.00;;;29.40;76.10;;;;;;5045674;28;20087;-69
2022/08/14 10:36:36;;;;;;;7.55;5.40;;;29.30;75.90;;;;;;5040009;28;20044;-68
2022/08/14 10:39:15;;;;;;;7.05;5.50;;;29.40;76.20;;;;;;5051535;28;20053;-70
2022/08/14 10:41:43;;;;;;;7.20;5.22;;;29.40;75.80;;;;;;5043706;28;20041;-69
2022/08/14 10:44:13;;;;;;;6.03;4.95;;;29.40;76.20;;;;;;5059352;28;20336;-69
2022/08/14 10:46:57;;;;;;;7.90;5.35;;;29.50;76.10;;;;;;5048681;28;20052;-69
2022/08/14 10:49:25;;;;;;;7.75;5.20;;;29.60;75.90;;;;;;5048220;28;20032;-70
2022/08/14 10:52:04;;;;;;;5.78;4.88;;;29.60;74.40;;;;;;5045503;28;20057;-69
2022/08/14 10:54:34;;;;;;;7.15;5.00;;;29.70;74.30;;;;;;5048559;28;20055;-75
2022/08/14 10:57:20;;;;;;;10.63;5.20;;;29.70;75.00;;;;;;5043828;28;20124;-72
2022/08/14 10:59:57;;;;;;;6.90;5.22;;;29.90;74.80;;;;;;5044134;28;20048;-67
2022/08/14 11:02:28;;;;;;;7.30;5.10;;;29.90;74.70;;;;;;5049488;28;20052;-67
2022/08/14 11:05:13;;;;;;;7.70;5.65;;;30.00;74.00;;;;;;5046808;28;20045;-70
2022/08/14 11:07:42;;;;;;;6.60;5.10;;;30.00;72.80;;;;;;5036357;28;20096;-70
2022/08/14 11:10:11;;;;;;;5.85;5.25;;;30.10;73.20;;;;;;5059304;28;20076;-69
2022/08/14 11:12:46;;;;;;;6.70;5.05;;;30.10;72.10;;;;;;5040770;28;20044;-67
2022/08/14 11:15:15;;;;;;;6.25;5.18;;;30.10;71.80;;;;;;5042134;28;20052;-66
2022/08/14 11:17:41;;;;;;;7.28;4.80;;;30.10;71.50;;;;;;5039264;28;20068;-66
2022/08/14 11:20:09;;;;;;;6.03;4.80;;;30.20;71.10;;;;;;5037304;28;20033;-67
2022/08/14 11:22:40;;;;;;;6.15;5.22;;;30.20;71.20;;;;;;5042403;28;20044;-68
2022/08/14 11:25:09;;;;;;;7.18;5.22;;;30.20;70.70;;;;;;5031242;28;20068;-68
2022/08/14 11:27:37;;;;;;;6.88;5.43;;;30.30;71.00;;;;;;5047822;28;20118;-67
2022/08/14 11:30:07;;;;;;;6.00;4.82;;;30.30;71.20;;;;;;5048620;28;20056;-67
2022/08/14 11:32:33;;;;;;;6.45;4.68;;;30.40;71.20;;;;;;5052108;28;20047;-67
2022/08/14 11:35:02;;;;;;;6.82;4.72;;;30.40;70.70;;;;;;5050228;28;20052;-68
2022/08/14 11:37:32;;;;;;;5.25;4.40;;;30.40;71.20;;;;;;5045557;28;20171;-66
2022/08/14 11:39:59;;;;;;;8.00;4.75;;;30.50;70.10;;;;;;5046233;28;20073;-66
2022/08/14 11:42:26;;;;;;;6.30;4.30;;;30.50;69.40;;;;;;5044397;28;20048;-66
2022/08/14 11:44:55;;;;;;;6.38;4.55;;;30.60;69.50;;;;;;5047263;28;20083;-63
2022/08/14 11:47:21;;;;;;;6.63;4.65;;;30.70;68.80;;;;;;5050484;28;20136;-67
2022/08/14 11:49:47;;;;;;;5.85;4.45;;;30.70;68.70;;;;;;5045744;28;20377;-66
2022/08/14 11:52:18;;;;;;;6.65;4.32;;;30.70;69.00;;;;;;5034361;28;20052;-65
2022/08/14 11:54:45;;;;;;;6.55;4.82;;;30.70;67.80;;;;;;5037277;28;20183;-64
2022/08/14 11:57:18;;;;;;;6.18;4.45;;;30.70;68.00;;;;;;5040356;28;20125;-65
2022/08/14 11:59:44;;;;;;;6.88;4.80;;;30.70;68.40;;;;;;5048559;28;20071;-65
2022/08/14 12:02:16;;;;;;;6.63;4.50;;;30.60;67.80;;;;;;5049311;28;20396;-64
2022/08/14 12:04:50;;;;;;;6.63;4.50;;;30.70;68.00;;;;;;5049177;28;20041;-64
2022/08/14 12:07:16;;;;;;;7.13;4.60;;;30.80;67.20;;;;;;5048717;28;20100;-64
2022/08/14 12:09:44;;;;;;;5.78;4.35;;;30.80;67.50;;;;;;5045807;28;20080;-65
2022/08/14 12:12:21;;;;;;;6.97;4.88;;;30.80;67.70;;;;;;5048316;28;20060;-67
2022/08/14 12:14:55;;;;;;;6.80;4.38;;;30.90;67.80;;;;;;5048174;28;20144;-63
2022/08/14 12:17:23;;;;;;;;;;;30.90;66.60;;;;;;5047677;28;20097;-67
2022/08/14 12:19:52;;;;;;;7.68;4.93;;;30.80;65.20;;;;;;5048191;28;19928;-65
2022/08/14 12:22:30;;;;;;;7.18;4.47;;;30.90;67.10;;;;;;5049672;28;20353;-67
2022/08/14 12:24:56;;;;;;;5.90;4.70;;;31.00;66.50;;;;;;5046579;28;20132;-66
2022/08/14 12:27:23;;;;;;;6.43;4.45;;;31.00;66.10;;;;;;5050360;28;20098;-65
2022/08/14 12:29:53;;;;;;;6.13;4.95;;;31.10;66.20;;;;;;5051245;28;20451;-66
2022/08/14 12:32:18;;;;;;;6.03;4.75;;;31.10;66.80;;;;;;5040383;28;20056;-68
2022/08/14 12:34:52;;;;;;;6.28;4.47;;;31.10;65.60;;;;;;5050014;28;20328;-67
2022/08/14 12:37:17;;;;;;;5.68;4.50;;;31.10;65.10;;;;;;5043348;28;20449;-64
2022/08/14 12:39:43;;;;;;;6.13;4.32;;;31.10;65.30;;;;;;5050119;28;20114;-65
2022/08/14 12:42:09;;;;;;;5.63;4.43;;;31.10;64.90;;;;;;5046265;28;20053;-68
2022/08/14 12:44:42;;;;;;;5.65;4.60;;;31.20;64.50;;;;;;5045982;28;20049;-66
2022/08/14 12:47:13;;;;;;;6.25;4.32;;;31.30;64.50;;;;;;5046403;28;20099;-64
2022/08/14 12:49:50;;;;;;;5.95;4.75;;;31.40;64.20;;;;;;5042492;28;20045;-69
2022/08/14 12:52:25;;;;;;;6.65;4.68;;;31.40;63.60;;;;;;5044970;28;20045;-67
2022/08/14 12:55:00;;;;;;;5.32;4.75;;;31.60;63.40;;;;;;5050818;28;21393;-65
2022/08/14 12:57:39;;;;;;;5.57;4.80;;;31.60;64.40;;;;;;5032565;28;20132;-68
2022/08/14 13:00:17;;;;;;;6.57;5.13;;;31.40;65.00;;;;;;5047622;28;20173;-66
2022/08/14 13:02:48;;;;;;;6.05;4.50;;;31.30;64.80;;;;;;5046083;28;20075;-68
2022/08/14 13:05:14;;;;;;;5.93;4.68;;;31.30;64.50;;;;;;5043758;28;20075;-68
2022/08/14 13:07:41;;;;;;;6.13;4.90;;;31.20;64.10;;;;;;5043464;28;20068;-68
2022/08/14 13:10:10;;;;;;;6.20;4.72;;;31.20;64.80;;;;;;5049134;28;20458;-67
2022/08/14 13:12:37;;;;;;;6.32;4.85;;;31.30;65.10;;;;;;5045239;28;20032;-67